ELY weather

Ely Airport Yelland Field
Ely, Nevada, United States

Public forecast

Using degrees Fahrenheit for public forecast. Weather courtesy of forecast.io.

Current aviation weather report (METAR) for Ely Airport Yelland Field

Retrieved 2020/02/27 19:53 UTC (32 minutes ago):

KELY 271953Z AUTO 11/M11 A3042 RMK AO2 SLP288 T01111111 PWINO

Aviation forecast (TAF) for Ely Airport Yelland Field

Retrieved 2020/02/27 18:45 UTC (2 hours ago):

TAF KELY 271743Z 2718/2818 18010KT P6SM SKC FM272000 34005KT P6SM SKC FM280200 19012KT P6SM SKC